CFS weather

Coffs Harbour Airport
Coffs Harbour, New South Wales, Australia

Public forecast

Using degrees Celsius for public forecast. Weather courtesy of forecast.io.

METAR (pilot weather report)

Closest report is Grafton Airport, 34.0 nm (62.9 km) N. Retrieved 2017/07/29 11:00 UTC (6 minutes ago):

YGFN 291100Z AUTO 19006KT 9999 // NCD 07/06 Q1020

TAF (pilot weather forecast)

Closest forecast is Taree Airport, 99.1 nm (183.5 km) SSW. Retrieved 2017/07/29 08:03 UTC (3 hours ago):

TAF TAF YTRE 290656Z 2908/2920 VRB05KT CAVOK